sensor_id;sensor_type;location;lat;lon;timestamp;temperature;humidity
75113;DHT22;63692;47.338;8.520;2024-03-25T05:09:24;5.10;99.90
75113;DHT22;63692;47.338;8.520;2024-03-25T06:32:30;4.50;99.90
75113;DHT22;63692;47.338;8.520;2024-03-25T07:57:19;5.80;99.90
75113;DHT22;63692;47.338;8.520;2024-03-25T08:00:14;5.80;99.90
75113;DHT22;63692;47.338;8.520;2024-03-25T08:03:13;5.80;99.90
75113;DHT22;63692;47.338;8.520;2024-03-25T10:02:39;7.50;99.90
75113;DHT22;63692;47.338;8.520;2024-03-25T10:33:25;8.00;99.90
75113;DHT22;63692;47.338;8.520;2024-03-25T11:01:17;8.40;99.90
75113;DHT22;63692;47.338;8.520;2024-03-25T11:16:10;8.50;99.90
75113;DHT22;63692;47.338;8.520;2024-03-25T11:23:51;8.50;99.90
75113;DHT22;63692;47.338;8.520;2024-03-25T11:29:03;8.60;99.90
75113;DHT22;63692;47.338;8.520;2024-03-25T11:31:41;8.70;99.90
75113;DHT22;63692;47.338;8.520;2024-03-25T12:10:23;9.40;99.90
75113;DHT22;63692;47.338;8.520;2024-03-25T12:13:40;9.40;99.90
75113;DHT22;63692;47.338;8.520;2024-03-25T12:32:13;9.70;99.90
75113;DHT22;63692;47.338;8.520;2024-03-25T12:34:45;9.70;99.90
75113;DHT22;63692;47.338;8.520;2024-03-25T12:37:32;9.70;99.90
75113;DHT22;63692;47.338;8.520;2024-03-25T12:39:57;9.70;99.90
75113;DHT22;63692;47.338;8.520;2024-03-25T12:42:25;9.80;99.90
75113;DHT22;63692;47.338;8.520;2024-03-25T12:44:52;9.80;99.90
75113;DHT22;63692;47.338;8.520;2024-03-25T12:47:19;9.90;99.90
75113;DHT22;63692;47.338;8.520;2024-03-25T12:49:45;9.90;99.90
75113;DHT22;63692;47.338;8.520;2024-03-25T12:52:11;10.10;99.90
75113;DHT22;63692;47.338;8.520;2024-03-25T12:54:37;10.20;99.90
75113;DHT22;63692;47.338;8.520;2024-03-25T12:57:03;10.20;99.90
75113;DHT22;63692;47.338;8.520;2024-03-25T12:59:28;10.20;99.90
75113;DHT22;63692;47.338;8.520;2024-03-25T13:01:54;10.20;99.90
75113;DHT22;63692;47.338;8.520;2024-03-25T13:04:20;10.20;99.90
75113;DHT22;63692;47.338;8.520;2024-03-25T13:06:45;10.30;99.90
75113;DHT22;63692;47.338;8.520;2024-03-25T13:09:11;10.30;99.90
75113;DHT22;63692;47.338;8.520;2024-03-25T13:11:38;10.30;99.90
75113;DHT22;63692;47.338;8.520;2024-03-25T13:14:04;10.40;99.90
75113;DHT22;63692;47.338;8.520;2024-03-25T13:16:32;10.50;99.90
75113;DHT22;63692;47.338;8.520;2024-03-25T13:18:58;10.60;99.90
75113;DHT22;63692;47.338;8.520;2024-03-25T13:21:24;10.60;99.90
75113;DHT22;63692;47.338;8.520;2024-03-25T13:23:56;10.70;99.90
75113;DHT22;63692;47.338;8.520;2024-03-25T13:26:21;10.80;99.90
75113;DHT22;63692;47.338;8.520;2024-03-25T13:28:47;10.80;99.90
75113;DHT22;63692;47.338;8.520;2024-03-25T13:33:41;11.00;99.90
75113;DHT22;63692;47.338;8.520;2024-03-25T13:38:34;11.40;99.90
75113;DHT22;63692;47.338;8.520;2024-03-25T13:41:01;11.60;99.90
75113;DHT22;63692;47.338;8.520;2024-03-25T13:43:26;11.70;99.90
75113;DHT22;63692;47.338;8.520;2024-03-25T13:45:52;11.80;99.90
75113;DHT22;63692;47.338;8.520;2024-03-25T13:48:21;12.00;99.90
75113;DHT22;63692;47.338;8.520;2024-03-25T13:53:21;12.10;99.90
75113;DHT22;63692;47.338;8.520;2024-03-25T13:55:47;12.30;98.30
75113;DHT22;63692;47.338;8.520;2024-03-25T13:58:13;12.50;99.80
75113;DHT22;63692;47.338;8.520;2024-03-25T14:00:38;12.60;99.90
75113;DHT22;63692;47.338;8.520;2024-03-25T14:03:04;12.70;99.90
75113;DHT22;63692;47.338;8.520;2024-03-25T14:05:30;12.70;99.90
75113;DHT22;63692;47.338;8.520;2024-03-25T14:07:55;12.80;96.80
75113;DHT22;63692;47.338;8.520;2024-03-25T14:10:22;13.00;99.60
75113;DHT22;63692;47.338;8.520;2024-03-25T14:12:47;13.10;98.40
75113;DHT22;63692;47.338;8.520;2024-03-25T14:15:13;13.30;99.90
75113;DHT22;63692;47.338;8.520;2024-03-25T14:17:39;13.50;95.70
75113;DHT22;63692;47.338;8.520;2024-03-25T14:20:05;13.90;97.50
75113;DHT22;63692;47.338;8.520;2024-03-25T14:22:32;14.20;96.20
75113;DHT22;63692;47.338;8.520;2024-03-25T14:24:58;14.60;94.40
75113;DHT22;63692;47.338;8.520;2024-03-25T14:27:24;15.10;94.00
75113;DHT22;63692;47.338;8.520;2024-03-25T14:29:50;15.60;92.30
75113;DHT22;63692;47.338;8.520;2024-03-25T14:32:19;16.10;93.30
75113;DHT22;63692;47.338;8.520;2024-03-25T14:34:45;16.50;87.80
75113;DHT22;63692;47.338;8.520;2024-03-25T14:37:11;16.90;87.90
75113;DHT22;63692;47.338;8.520;2024-03-25T14:39:37;17.30;86.20
75113;DHT22;63692;47.338;8.520;2024-03-25T14:42:02;17.60;82.80
75113;DHT22;63692;47.338;8.520;2024-03-25T14:44:29;18.10;81.80
75113;DHT22;63692;47.338;8.520;2024-03-25T14:46:57;18.50;77.50
75113;DHT22;63692;47.338;8.520;2024-03-25T14:49:25;18.60;69.40
75113;DHT22;63692;47.338;8.520;2024-03-25T14:51:51;19.10;72.10
75113;DHT22;63692;47.338;8.520;2024-03-25T14:54:18;19.50;73.70
75113;DHT22;63692;47.338;8.520;2024-03-25T14:56:46;19.80;68.70
75113;DHT22;63692;47.338;8.520;2024-03-25T14:59:18;20.20;67.50
75113;DHT22;63692;47.338;8.520;2024-03-25T15:01:44;20.60;64.10
75113;DHT22;63692;47.338;8.520;2024-03-25T15:04:09;20.90;63.40
75113;DHT22;63692;47.338;8.520;2024-03-25T15:06:35;21.10;64.40
75113;DHT22;63692;47.338;8.520;2024-03-25T15:09:01;21.30;61.40
75113;DHT22;63692;47.338;8.520;2024-03-25T15:11:26;21.60;59.80
75113;DHT22;63692;47.338;8.520;2024-03-25T15:13:54;21.80;57.90
75113;DHT22;63692;47.338;8.520;2024-03-25T15:16:26;21.90;57.30
75113;DHT22;63692;47.338;8.520;2024-03-25T15:21:19;22.00;55.50
75113;DHT22;63692;47.338;8.520;2024-03-25T15:24:03;22.20;54.70
75113;DHT22;63692;47.338;8.520;2024-03-25T15:27:00;22.40;55.00
75113;DHT22;63692;47.338;8.520;2024-03-25T15:31:53;22.50;52.30
75113;DHT22;63692;47.338;8.520;2024-03-25T15:34:19;22.70;52.30
75113;DHT22;63692;47.338;8.520;2024-03-25T15:36:56;22.80;51.10
75113;DHT22;63692;47.338;8.520;2024-03-25T15:41:49;22.70;50.90
75113;DHT22;63692;47.338;8.520;2024-03-25T15:44:15;22.20;51.10
75113;DHT22;63692;47.338;8.520;2024-03-25T15:46:41;21.80;52.10
75113;DHT22;63692;47.338;8.520;2024-03-25T15:51:41;21.40;52.80
75113;DHT22;63692;47.338;8.520;2024-03-25T15:54:06;21.30;52.30
75113;DHT22;63692;47.338;8.520;2024-03-25T15:56:32;21.10;52.10
75113;DHT22;63692;47.338;8.520;2024-03-25T15:58:58;20.90;52.40
75113;DHT22;63692;47.338;8.520;2024-03-25T16:01:33;20.80;52.60
75113;DHT22;63692;47.338;8.520;2024-03-25T16:04:25;20.70;52.70
75113;DHT22;63692;47.338;8.520;2024-03-25T16:07:22;20.50;53.20
75113;DHT22;63692;47.338;8.520;2024-03-25T16:09:50;20.30;53.40
75113;DHT22;63692;47.338;8.520;2024-03-25T16:17:34;19.20;55.80
75113;DHT22;63692;47.338;8.520;2024-03-25T16:40:39;15.80;63.00
75113;DHT22;63692;47.338;8.520;2024-03-25T16:43:06;15.60;64.30
75113;DHT22;63692;47.338;8.520;2024-03-25T16:45:31;15.40;65.20
75113;DHT22;63692;47.338;8.520;2024-03-25T16:47:57;15.30;65.70
75113;DHT22;63692;47.338;8.520;2024-03-25T16:53:23;15.00;66.50
75113;DHT22;63692;47.338;8.520;2024-03-25T17:00:49;14.50;68.20
75113;DHT22;63692;47.338;8.520;2024-03-25T17:22:04;13.60;71.70
75113;DHT22;63692;47.338;8.520;2024-03-25T17:24:30;13.50;71.60
75113;DHT22;63692;47.338;8.520;2024-03-25T17:34:32;13.20;74.70
75113;DHT22;63692;47.338;8.520;2024-03-25T17:36:57;13.10;74.00
75113;DHT22;63692;47.338;8.520;2024-03-25T17:39:23;13.00;74.00
75113;DHT22;63692;47.338;8.520;2024-03-25T17:49:18;12.80;75.10
75113;DHT22;63692;47.338;8.520;2024-03-25T17:51:56;12.70;75.20
75113;DHT22;63692;47.338;8.520;2024-03-25T17:54:23;12.60;75.10
75113;DHT22;63692;47.338;8.520;2024-03-25T17:56:48;12.50;75.40
75113;DHT22;63692;47.338;8.520;2024-03-25T17:59:15;12.50;75.90
75113;DHT22;63692;47.338;8.520;2024-03-25T18:01:41;12.40;76.10
75113;DHT22;63692;47.338;8.520;2024-03-25T18:04:07;12.30;75.70
75113;DHT22;63692;47.338;8.520;2024-03-25T18:06:34;12.30;76.10
75113;DHT22;63692;47.338;8.520;2024-03-25T18:08:59;12.20;76.00
75113;DHT22;63692;47.338;8.520;2024-03-25T18:11:25;12.10;76.20
75113;DHT22;63692;47.338;8.520;2024-03-25T18:13:51;12.10;77.00
75113;DHT22;63692;47.338;8.520;2024-03-25T18:16:16;12.00;77.30
75113;DHT22;63692;47.338;8.520;2024-03-25T18:18:44;12.00;77.30
75113;DHT22;63692;47.338;8.520;2024-03-25T18:21:10;11.90;78.80
75113;DHT22;63692;47.338;8.520;2024-03-25T18:23:35;11.90;77.80
75113;DHT22;63692;47.338;8.520;2024-03-25T18:38:20;11.60;84.80
75113;DHT22;63692;47.338;8.520;2024-03-25T18:43:13;11.40;86.90
75113;DHT22;63692;47.338;8.520;2024-03-25T18:48:06;11.30;87.60
75113;DHT22;63692;47.338;8.520;2024-03-25T19:00:30;11.00;84.20
75113;DHT22;63692;47.338;8.520;2024-03-25T19:15:14;10.80;90.70
75113;DHT22;63692;47.338;8.520;2024-03-25T19:20:07;10.70;90.60
75113;DHT22;63692;47.338;8.520;2024-03-25T19:22:34;10.60;89.80
75113;DHT22;63692;47.338;8.520;2024-03-25T19:25:03;10.50;89.80
75113;DHT22;63692;47.338;8.520;2024-03-25T19:44:47;10.20;91.40
75113;DHT22;63692;47.338;8.520;2024-03-25T19:57:02;10.00;92.00
75113;DHT22;63692;47.338;8.520;2024-03-25T20:09:24;9.80;92.50
75113;DHT22;63692;47.338;8.520;2024-03-25T20:11:50;9.70;92.10
75113;DHT22;63692;47.338;8.520;2024-03-25T20:14:16;9.60;91.50
75113;DHT22;63692;47.338;8.520;2024-03-25T20:16:43;9.60;91.80
75113;DHT22;63692;47.338;8.520;2024-03-25T20:19:10;9.50;92.50
75113;DHT22;63692;47.338;8.520;2024-03-25T20:21:39;9.40;93.10
75113;DHT22;63692;47.338;8.520;2024-03-25T20:24:10;9.40;93.60
75113;DHT22;63692;47.338;8.520;2024-03-25T20:26:36;9.40;93.70
75113;DHT22;63692;47.338;8.520;2024-03-25T20:29:03;9.30;94.20
75113;DHT22;63692;47.338;8.520;2024-03-25T20:31:28;9.30;94.10
75113;DHT22;63692;47.338;8.520;2024-03-25T20:33:54;9.30;94.50
75113;DHT22;63692;47.338;8.520;2024-03-25T20:36:21;9.30;94.60
75113;DHT22;63692;47.338;8.520;2024-03-25T20:43:42;9.20;94.30
75113;DHT22;63692;47.338;8.520;2024-03-25T20:46:13;9.20;94.60
75113;DHT22;63692;47.338;8.520;2024-03-25T20:58:28;8.80;95.80
75113;DHT22;63692;47.338;8.520;2024-03-25T21:00:54;8.80;95.80
75113;DHT22;63692;47.338;8.520;2024-03-25T21:03:20;8.70;96.00
75113;DHT22;63692;47.338;8.520;2024-03-25T21:05:59;8.70;96.40
75113;DHT22;63692;47.338;8.520;2024-03-25T21:08:27;8.70;96.40
75113;DHT22;63692;47.338;8.520;2024-03-25T21:10:52;8.80;96.50
75113;DHT22;63692;47.338;8.520;2024-03-25T21:13:18;8.70;96.80
75113;DHT22;63692;47.338;8.520;2024-03-25T21:15:43;8.70;97.10
75113;DHT22;63692;47.338;8.520;2024-03-25T21:18:09;8.70;97.80
75113;DHT22;63692;47.338;8.520;2024-03-25T21:20:35;8.70;97.50
75113;DHT22;63692;47.338;8.520;2024-03-25T21:23:01;8.60;97.00
75113;DHT22;63692;47.338;8.520;2024-03-25T21:25:26;8.60;97.30
75113;DHT22;63692;47.338;8.520;2024-03-25T21:27:53;8.60;97.60
75113;DHT22;63692;47.338;8.520;2024-03-25T21:30:19;8.60;98.30
